CheckWX is a tool to help pilots better visualize weather data.  It is not intended as a substitute for an official pre-flight weather briefing.

22:29:12 UTC

PAVD METAR
Valdez Pioneer Field Airport
Valdez, Alaska, USA
Current

33 mins ago

PAVD 022156Z 09010G20KT 10SM BKN300 25/03 A3006 RMK AO2 PK WND 06029/2111 SLP178 T02500028
Observed
Jul-2 @ 21:56 UTC
Wind
  • 090° at 10 KTS
  • Gusting to 20 KTS
Visibility
10 SM
Flight Rules
VFR
Cloud Levels
  • Broken at 30,000' AGL
Temperature
25°C / 77°F
Dewpoint
C / 37°F
Humidity
24%
Altimeter
30.06" Hg
Pressure
1017.92 hPa
Previous

2 hours ago

PAVD 022056Z 09013G21KT 10SM CLR 24/03 A3008 RMK AO2 PK WND 09027/2004 SLP185 T02440028 58014
Observed
Jul-2 @ 20:56 UTC
Wind
  • 090° at 13 KTS
  • Gusting to 21 KTS
Visibility
10 SM
Flight Rules
VFR
Cloud Levels
  • Clear skies
Temperature
24°C / 75°F
Dewpoint
C / 37°F
Humidity
25%
Altimeter
30.08" Hg
Pressure
1018.62 hPa
Previous

3 hours ago

PAVD 021956Z 08017G26KT 10SM CLR 24/02 A3010 RMK AO2 PK WND 07032/1927 SLP190 T02390022
Observed
Jul-2 @ 19:56 UTC
Wind
  • 080° at 17 KTS
  • Gusting to 26 KTS
Visibility
10 SM
Flight Rules
VFR
Cloud Levels
  • Clear skies
Temperature
24°C / 75°F
Dewpoint
C / 36°F
Humidity
24%
Altimeter
30.1" Hg
Pressure
1019.32 hPa